sensor_id;sensor_type;location;lat;lon;timestamp;P1;durP1;ratioP1;P2;durP2;ratioP2
59649;SDS011;46162;57.568;25.814;2022-11-21T00:01:35;21.10;;;11.75;;
59649;SDS011;46162;57.568;25.814;2022-11-21T00:04:03;20.55;;;11.13;;
59649;SDS011;46162;57.568;25.814;2022-11-21T00:06:33;17.85;;;9.80;;
59649;SDS011;46162;57.568;25.814;2022-11-21T00:09:01;19.20;;;10.48;;
59649;SDS011;46162;57.568;25.814;2022-11-21T00:11:30;18.02;;;10.18;;
59649;SDS011;46162;57.568;25.814;2022-11-21T00:13:59;18.27;;;10.85;;
59649;SDS011;46162;57.568;25.814;2022-11-21T00:16:29;20.55;;;12.02;;
59649;SDS011;46162;57.568;25.814;2022-11-21T00:21:26;17.27;;;8.27;;
59649;SDS011;46162;57.568;25.814;2022-11-21T00:23:55;21.58;;;10.85;;
59649;SDS011;46162;57.568;25.814;2022-11-21T00:26:24;21.25;;;10.50;;
59649;SDS011;46162;57.568;25.814;2022-11-21T00:28:52;21.95;;;10.57;;
59649;SDS011;46162;57.568;25.814;2022-11-21T00:31:21;22.63;;;11.98;;
59649;SDS011;46162;57.568;25.814;2022-11-21T00:33:53;20.13;;;10.32;;
59649;SDS011;46162;57.568;25.814;2022-11-21T00:36:21;20.80;;;11.33;;
59649;SDS011;46162;57.568;25.814;2022-11-21T00:38:50;18.02;;;10.02;;
59649;SDS011;46162;57.568;25.814;2022-11-21T00:41:18;21.00;;;10.65;;
59649;SDS011;46162;57.568;25.814;2022-11-21T00:43:47;21.70;;;11.60;;
59649;SDS011;46162;57.568;25.814;2022-11-21T00:46:16;21.23;;;10.52;;
59649;SDS011;46162;57.568;25.814;2022-11-21T00:48:44;23.08;;;10.90;;
59649;SDS011;46162;57.568;25.814;2022-11-21T00:51:14;21.05;;;11.45;;
59649;SDS011;46162;57.568;25.814;2022-11-21T00:53:43;21.35;;;11.15;;
59649;SDS011;46162;57.568;25.814;2022-11-21T00:56:12;19.10;;;10.00;;
59649;SDS011;46162;57.568;25.814;2022-11-21T00:58:41;20.63;;;11.35;;
59649;SDS011;46162;57.568;25.814;2022-11-21T01:01:10;19.88;;;10.25;;
59649;SDS011;46162;57.568;25.814;2022-11-21T01:03:40;16.63;;;8.67;;
59649;SDS011;46162;57.568;25.814;2022-11-21T01:06:09;19.88;;;10.43;;
59649;SDS011;46162;57.568;25.814;2022-11-21T01:08:41;20.27;;;11.07;;
59649;SDS011;46162;57.568;25.814;2022-11-21T01:11:12;25.13;;;12.23;;
59649;SDS011;46162;57.568;25.814;2022-11-21T01:13:41;22.55;;;11.35;;
59649;SDS011;46162;57.568;25.814;2022-11-21T01:16:11;14.70;;;7.63;;
59649;SDS011;46162;57.568;25.814;2022-11-21T01:18:41;19.90;;;10.15;;
59649;SDS011;46162;57.568;25.814;2022-11-21T01:21:12;18.60;;;9.82;;
59649;SDS011;46162;57.568;25.814;2022-11-21T01:23:43;18.73;;;9.57;;
59649;SDS011;46162;57.568;25.814;2022-11-21T01:26:13;21.98;;;11.60;;
59649;SDS011;46162;57.568;25.814;2022-11-21T01:28:42;20.42;;;8.73;;
59649;SDS011;46162;57.568;25.814;2022-11-21T01:31:12;18.92;;;10.45;;
59649;SDS011;46162;57.568;25.814;2022-11-21T01:33:42;18.00;;;9.75;;
59649;SDS011;46162;57.568;25.814;2022-11-21T01:36:12;22.55;;;10.15;;
59649;SDS011;46162;57.568;25.814;2022-11-21T01:38:44;18.92;;;10.93;;
59649;SDS011;46162;57.568;25.814;2022-11-21T01:41:15;18.27;;;9.45;;
59649;SDS011;46162;57.568;25.814;2022-11-21T01:43:46;20.20;;;9.95;;
59649;SDS011;46162;57.568;25.814;2022-11-21T01:46:16;16.65;;;9.20;;
59649;SDS011;46162;57.568;25.814;2022-11-21T01:48:47;18.75;;;10.50;;
59649;SDS011;46162;57.568;25.814;2022-11-21T01:51:21;16.42;;;9.60;;
59649;SDS011;46162;57.568;25.814;2022-11-21T01:53:55;21.35;;;10.27;;
59649;SDS011;46162;57.568;25.814;2022-11-21T01:56:29;16.60;;;9.52;;
59649;SDS011;46162;57.568;25.814;2022-11-21T01:59:03;17.45;;;9.35;;
59649;SDS011;46162;57.568;25.814;2022-11-21T02:01:35;16.42;;;9.70;;
59649;SDS011;46162;57.568;25.814;2022-11-21T02:04:04;20.35;;;10.32;;
59649;SDS011;46162;57.568;25.814;2022-11-21T02:06:34;20.90;;;10.82;;
59649;SDS011;46162;57.568;25.814;2022-11-21T02:09:06;18.27;;;10.33;;
59649;SDS011;46162;57.568;25.814;2022-11-21T02:11:36;17.45;;;9.82;;
59649;SDS011;46162;57.568;25.814;2022-11-21T02:14:07;19.67;;;9.98;;
59649;SDS011;46162;57.568;25.814;2022-11-21T02:16:37;16.35;;;9.27;;
59649;SDS011;46162;57.568;25.814;2022-11-21T02:19:06;18.33;;;9.77;;
59649;SDS011;46162;57.568;25.814;2022-11-21T02:21:40;17.30;;;9.30;;
59649;SDS011;46162;57.568;25.814;2022-11-21T02:24:15;16.67;;;9.55;;
59649;SDS011;46162;57.568;25.814;2022-11-21T02:26:51;19.42;;;11.15;;
59649;SDS011;46162;57.568;25.814;2022-11-21T02:29:20;16.15;;;9.20;;
59649;SDS011;46162;57.568;25.814;2022-11-21T02:31:49;18.40;;;9.95;;
59649;SDS011;46162;57.568;25.814;2022-11-21T02:34:19;17.57;;;9.40;;
59649;SDS011;46162;57.568;25.814;2022-11-21T02:36:48;20.40;;;10.55;;
59649;SDS011;46162;57.568;25.814;2022-11-21T02:39:18;17.55;;;10.25;;
59649;SDS011;46162;57.568;25.814;2022-11-21T02:41:53;16.20;;;9.25;;
59649;SDS011;46162;57.568;25.814;2022-11-21T02:44:28;17.08;;;9.52;;
59649;SDS011;46162;57.568;25.814;2022-11-21T02:47:03;17.08;;;8.75;;
59649;SDS011;46162;57.568;25.814;2022-11-21T02:49:33;18.25;;;10.02;;
59649;SDS011;46162;57.568;25.814;2022-11-21T02:52:10;17.38;;;9.15;;
59649;SDS011;46162;57.568;25.814;2022-11-21T02:54:39;20.27;;;9.85;;
59649;SDS011;46162;57.568;25.814;2022-11-21T02:57:09;18.55;;;9.35;;
59649;SDS011;46162;57.568;25.814;2022-11-21T02:59:37;17.80;;;9.03;;
59649;SDS011;46162;57.568;25.814;2022-11-21T03:02:06;20.15;;;9.45;;
59649;SDS011;46162;57.568;25.814;2022-11-21T03:04:34;17.23;;;9.82;;
59649;SDS011;46162;57.568;25.814;2022-11-21T03:07:03;18.45;;;9.80;;
59649;SDS011;46162;57.568;25.814;2022-11-21T03:09:32;17.90;;;9.27;;
59649;SDS011;46162;57.568;25.814;2022-11-21T03:12:04;19.05;;;9.77;;
59649;SDS011;46162;57.568;25.814;2022-11-21T03:14:34;18.50;;;9.90;;
59649;SDS011;46162;57.568;25.814;2022-11-21T03:17:03;16.40;;;8.95;;
59649;SDS011;46162;57.568;25.814;2022-11-21T03:19:32;16.35;;;8.77;;
59649;SDS011;46162;57.568;25.814;2022-11-21T03:22:00;16.20;;;8.95;;
59649;SDS011;46162;57.568;25.814;2022-11-21T03:24:29;14.88;;;7.82;;
59649;SDS011;46162;57.568;25.814;2022-11-21T03:26:58;14.75;;;7.93;;
59649;SDS011;46162;57.568;25.814;2022-11-21T03:29:26;16.38;;;8.88;;
59649;SDS011;46162;57.568;25.814;2022-11-21T03:31:57;15.98;;;7.68;;
59649;SDS011;46162;57.568;25.814;2022-11-21T03:34:25;14.23;;;8.18;;
59649;SDS011;46162;57.568;25.814;2022-11-21T03:36:54;16.60;;;8.68;;
59649;SDS011;46162;57.568;25.814;2022-11-21T03:39:23;16.50;;;8.32;;
59649;SDS011;46162;57.568;25.814;2022-11-21T03:41:52;15.88;;;8.63;;
59649;SDS011;46162;57.568;25.814;2022-11-21T03:44:20;16.95;;;8.85;;
59649;SDS011;46162;57.568;25.814;2022-11-21T03:46:49;14.77;;;8.10;;
59649;SDS011;46162;57.568;25.814;2022-11-21T03:49:19;17.15;;;8.48;;
59649;SDS011;46162;57.568;25.814;2022-11-21T03:51:48;17.93;;;9.17;;
59649;SDS011;46162;57.568;25.814;2022-11-21T03:54:16;14.55;;;7.72;;
59649;SDS011;46162;57.568;25.814;2022-11-21T03:56:45;15.52;;;8.65;;
59649;SDS011;46162;57.568;25.814;2022-11-21T03:59:14;18.02;;;9.20;;
59649;SDS011;46162;57.568;25.814;2022-11-21T04:01:42;16.48;;;8.98;;
59649;SDS011;46162;57.568;25.814;2022-11-21T04:04:17;15.52;;;8.48;;
59649;SDS011;46162;57.568;25.814;2022-11-21T04:06:50;15.93;;;8.32;;
59649;SDS011;46162;57.568;25.814;2022-11-21T04:09:22;16.33;;;8.48;;
59649;SDS011;46162;57.568;25.814;2022-11-21T04:11:57;15.00;;;8.25;;
59649;SDS011;46162;57.568;25.814;2022-11-21T04:14:33;17.08;;;8.77;;
59649;SDS011;46162;57.568;25.814;2022-11-21T04:17:02;16.83;;;8.50;;
59649;SDS011;46162;57.568;25.814;2022-11-21T04:19:35;18.42;;;9.23;;
59649;SDS011;46162;57.568;25.814;2022-11-21T04:22:04;17.95;;;9.57;;
59649;SDS011;46162;57.568;25.814;2022-11-21T04:24:36;18.88;;;10.43;;
59649;SDS011;46162;57.568;25.814;2022-11-21T04:27:12;17.95;;;9.55;;
59649;SDS011;46162;57.568;25.814;2022-11-21T04:29:43;18.73;;;9.23;;
59649;SDS011;46162;57.568;25.814;2022-11-21T04:32:15;19.23;;;10.02;;
59649;SDS011;46162;57.568;25.814;2022-11-21T04:34:48;16.70;;;8.18;;
59649;SDS011;46162;57.568;25.814;2022-11-21T04:37:20;17.52;;;9.48;;
59649;SDS011;46162;57.568;25.814;2022-11-21T04:39:49;16.90;;;9.02;;
59649;SDS011;46162;57.568;25.814;2022-11-21T04:42:18;20.27;;;9.77;;
59649;SDS011;46162;57.568;25.814;2022-11-21T04:44:51;19.00;;;9.70;;
59649;SDS011;46162;57.568;25.814;2022-11-21T04:47:27;19.17;;;8.52;;
59649;SDS011;46162;57.568;25.814;2022-11-21T04:50:03;15.98;;;8.35;;
59649;SDS011;46162;57.568;25.814;2022-11-21T04:52:35;16.40;;;7.85;;
59649;SDS011;46162;57.568;25.814;2022-11-21T04:55:05;17.40;;;9.35;;
59649;SDS011;46162;57.568;25.814;2022-11-21T04:57:50;13.43;;;6.63;;
59649;SDS011;46162;57.568;25.814;2022-11-21T05:00:24;18.98;;;9.55;;
59649;SDS011;46162;57.568;25.814;2022-11-21T05:02:54;16.75;;;9.05;;
59649;SDS011;46162;57.568;25.814;2022-11-21T05:05:27;17.40;;;8.90;;
59649;SDS011;46162;57.568;25.814;2022-11-21T05:08:00;18.50;;;9.55;;
59649;SDS011;46162;57.568;25.814;2022-11-21T05:10:29;17.63;;;8.68;;
59649;SDS011;46162;57.568;25.814;2022-11-21T05:13:19;18.88;;;9.25;;
59649;SDS011;46162;57.568;25.814;2022-11-21T05:15:46;17.90;;;8.90;;
59649;SDS011;46162;57.568;25.814;2022-11-21T05:18:26;16.23;;;8.27;;
59649;SDS011;46162;57.568;25.814;2022-11-21T05:21:01;16.55;;;8.95;;
59649;SDS011;46162;57.568;25.814;2022-11-21T05:23:30;17.80;;;8.70;;
59649;SDS011;46162;57.568;25.814;2022-11-21T05:26:02;18.70;;;8.63;;
59649;SDS011;46162;57.568;25.814;2022-11-21T05:28:34;15.90;;;7.75;;
59649;SDS011;46162;57.568;25.814;2022-11-21T05:31:05;18.58;;;7.85;;
59649;SDS011;46162;57.568;25.814;2022-11-21T05:33:37;19.77;;;7.95;;
59649;SDS011;46162;57.568;25.814;2022-11-21T05:36:13;13.45;;;7.88;;
59649;SDS011;46162;57.568;25.814;2022-11-21T05:38:43;16.85;;;7.68;;
59649;SDS011;46162;57.568;25.814;2022-11-21T05:41:14;15.85;;;7.97;;
59649;SDS011;46162;57.568;25.814;2022-11-21T05:43:44;15.38;;;8.05;;
59649;SDS011;46162;57.568;25.814;2022-11-21T05:46:23;15.57;;;7.45;;
59649;SDS011;46162;57.568;25.814;2022-11-21T05:49:21;14.52;;;7.68;;
59649;SDS011;46162;57.568;25.814;2022-11-21T05:51:58;14.80;;;6.97;;
59649;SDS011;46162;57.568;25.814;2022-11-21T05:54:32;14.55;;;7.65;;
59649;SDS011;46162;57.568;25.814;2022-11-21T05:57:01;13.48;;;7.05;;
59649;SDS011;46162;57.568;25.814;2022-11-21T05:59:32;12.52;;;6.68;;
59649;SDS011;46162;57.568;25.814;2022-11-21T06:02:02;11.63;;;6.07;;
59649;SDS011;46162;57.568;25.814;2022-11-21T06:04:49;12.52;;;6.93;;
59649;SDS011;46162;57.568;25.814;2022-11-21T06:07:19;14.18;;;7.03;;
59649;SDS011;46162;57.568;25.814;2022-11-21T06:09:48;13.65;;;7.85;;
59649;SDS011;46162;57.568;25.814;2022-11-21T06:12:17;11.18;;;5.97;;
59649;SDS011;46162;57.568;25.814;2022-11-21T06:14:52;12.43;;;6.22;;
59649;SDS011;46162;57.568;25.814;2022-11-21T06:17:27;11.82;;;6.47;;
59649;SDS011;46162;57.568;25.814;2022-11-21T06:19:59;12.02;;;6.40;;
59649;SDS011;46162;57.568;25.814;2022-11-21T06:25:10;11.45;;;6.28;;
59649;SDS011;46162;57.568;25.814;2022-11-21T06:27:39;11.32;;;6.30;;
59649;SDS011;46162;57.568;25.814;2022-11-21T06:30:09;12.23;;;5.80;;
59649;SDS011;46162;57.568;25.814;2022-11-21T06:32:42;13.85;;;6.97;;
59649;SDS011;46162;57.568;25.814;2022-11-21T06:35:11;11.88;;;6.60;;
59649;SDS011;46162;57.568;25.814;2022-11-21T06:37:41;10.60;;;5.70;;
59649;SDS011;46162;57.568;25.814;2022-11-21T06:40:19;11.43;;;5.68;;
59649;SDS011;46162;57.568;25.814;2022-11-21T06:42:48;11.90;;;6.00;;
59649;SDS011;46162;57.568;25.814;2022-11-21T06:45:17;10.82;;;5.60;;
59649;SDS011;46162;57.568;25.814;2022-11-21T06:47:50;11.38;;;5.63;;
59649;SDS011;46162;57.568;25.814;2022-11-21T06:50:29;11.52;;;5.82;;
59649;SDS011;46162;57.568;25.814;2022-11-21T06:53:08;12.48;;;5.60;;
59649;SDS011;46162;57.568;25.814;2022-11-21T06:56:21;11.07;;;5.53;;
59649;SDS011;46162;57.568;25.814;2022-11-21T06:58:52;10.40;;;5.47;;
59649;SDS011;46162;57.568;25.814;2022-11-21T07:01:22;10.63;;;5.05;;
59649;SDS011;46162;57.568;25.814;2022-11-21T07:03:54;10.82;;;5.93;;
59649;SDS011;46162;57.568;25.814;2022-11-21T07:06:37;11.23;;;6.22;;
59649;SDS011;46162;57.568;25.814;2022-11-21T07:09:11;10.65;;;5.65;;
59649;SDS011;46162;57.568;25.814;2022-11-21T07:11:59;12.55;;;6.35;;
59649;SDS011;46162;57.568;25.814;2022-11-21T07:14:50;10.45;;;5.75;;
59649;SDS011;46162;57.568;25.814;2022-11-21T07:17:19;10.35;;;5.88;;
59649;SDS011;46162;57.568;25.814;2022-11-21T07:19:48;11.50;;;5.95;;
59649;SDS011;46162;57.568;25.814;2022-11-21T07:22:17;11.25;;;5.85;;
59649;SDS011;46162;57.568;25.814;2022-11-21T07:24:47;11.32;;;6.68;;
59649;SDS011;46162;57.568;25.814;2022-11-21T07:27:16;10.73;;;4.95;;
59649;SDS011;46162;57.568;25.814;2022-11-21T07:29:45;10.20;;;5.63;;
59649;SDS011;46162;57.568;25.814;2022-11-21T07:32:19;11.73;;;6.75;;
59649;SDS011;46162;57.568;25.814;2022-11-21T07:34:48;11.55;;;5.60;;
59649;SDS011;46162;57.568;25.814;2022-11-21T07:37:17;9.73;;;5.00;;
59649;SDS011;46162;57.568;25.814;2022-11-21T07:39:50;11.45;;;5.32;;
59649;SDS011;46162;57.568;25.814;2022-11-21T07:42:19;10.07;;;5.80;;
59649;SDS011;46162;57.568;25.814;2022-11-21T07:44:49;10.18;;;5.20;;
59649;SDS011;46162;57.568;25.814;2022-11-21T07:47:24;10.73;;;4.80;;
59649;SDS011;46162;57.568;25.814;2022-11-21T07:49:53;9.40;;;5.38;;
59649;SDS011;46162;57.568;25.814;2022-11-21T07:52:24;8.45;;;4.90;;
59649;SDS011;46162;57.568;25.814;2022-11-21T07:54:57;9.52;;;5.32;;
59649;SDS011;46162;57.568;25.814;2022-11-21T07:57:31;11.20;;;5.85;;
59649;SDS011;46162;57.568;25.814;2022-11-21T08:00:00;9.60;;;5.60;;
59649;SDS011;46162;57.568;25.814;2022-11-21T08:02:29;11.07;;;6.25;;
59649;SDS011;46162;57.568;25.814;2022-11-21T08:04:58;10.45;;;4.88;;
59649;SDS011;46162;57.568;25.814;2022-11-21T08:07:27;26.92;;;11.68;;
59649;SDS011;46162;57.568;25.814;2022-11-21T08:09:58;54.90;;;20.50;;
59649;SDS011;46162;57.568;25.814;2022-11-21T08:12:32;8.68;;;5.20;;
59649;SDS011;46162;57.568;25.814;2022-11-21T08:15:01;9.70;;;5.53;;
59649;SDS011;46162;57.568;25.814;2022-11-21T08:17:31;26.58;;;10.88;;
59649;SDS011;46162;57.568;25.814;2022-11-21T08:20:00;11.20;;;6.47;;
59649;SDS011;46162;57.568;25.814;2022-11-21T08:22:32;12.82;;;6.82;;
59649;SDS011;46162;57.568;25.814;2022-11-21T08:25:10;10.93;;;6.05;;
59649;SDS011;46162;57.568;25.814;2022-11-21T08:27:41;9.80;;;5.50;;
59649;SDS011;46162;57.568;25.814;2022-11-21T08:30:13;12.55;;;6.10;;
59649;SDS011;46162;57.568;25.814;2022-11-21T08:32:46;9.35;;;5.45;;
59649;SDS011;46162;57.568;25.814;2022-11-21T08:35:15;12.82;;;6.18;;
59649;SDS011;46162;57.568;25.814;2022-11-21T08:37:45;11.43;;;5.65;;
59649;SDS011;46162;57.568;25.814;2022-11-21T08:40:20;10.77;;;6.10;;
59649;SDS011;46162;57.568;25.814;2022-11-21T08:42:55;10.43;;;5.60;;
59649;SDS011;46162;57.568;25.814;2022-11-21T08:45:24;10.18;;;4.90;;
59649;SDS011;46162;57.568;25.814;2022-11-21T08:47:54;11.10;;;5.82;;
59649;SDS011;46162;57.568;25.814;2022-11-21T08:50:23;16.02;;;6.80;;
59649;SDS011;46162;57.568;25.814;2022-11-21T08:52:52;11.57;;;5.70;;
59649;SDS011;46162;57.568;25.814;2022-11-21T08:55:26;11.27;;;5.97;;
59649;SDS011;46162;57.568;25.814;2022-11-21T08:57:56;9.63;;;5.35;;
59649;SDS011;46162;57.568;25.814;2022-11-21T09:02:58;8.65;;;4.93;;
59649;SDS011;46162;57.568;25.814;2022-11-21T09:05:36;9.05;;;5.10;;
59649;SDS011;46162;57.568;25.814;2022-11-21T09:08:08;11.98;;;5.57;;
59649;SDS011;46162;57.568;25.814;2022-11-21T09:10:42;9.93;;;4.60;;
59649;SDS011;46162;57.568;25.814;2022-11-21T09:13:11;9.02;;;5.00;;
59649;SDS011;46162;57.568;25.814;2022-11-21T09:15:41;10.48;;;5.78;;
59649;SDS011;46162;57.568;25.814;2022-11-21T09:18:28;8.55;;;4.25;;
59649;SDS011;46162;57.568;25.814;2022-11-21T09:21:01;9.82;;;5.43;;
59649;SDS011;46162;57.568;25.814;2022-11-21T09:23:34;11.27;;;5.88;;
59649;SDS011;46162;57.568;25.814;2022-11-21T09:26:04;9.10;;;4.43;;
59649;SDS011;46162;57.568;25.814;2022-11-21T09:28:33;8.90;;;4.65;;
59649;SDS011;46162;57.568;25.814;2022-11-21T09:31:03;11.35;;;7.03;;
59649;SDS011;46162;57.568;25.814;2022-11-21T09:33:32;10.88;;;6.03;;
59649;SDS011;46162;57.568;25.814;2022-11-21T09:36:02;11.50;;;5.78;;
59649;SDS011;46162;57.568;25.814;2022-11-21T09:38:32;11.60;;;7.20;;
59649;SDS011;46162;57.568;25.814;2022-11-21T09:41:06;9.05;;;5.95;;
59649;SDS011;46162;57.568;25.814;2022-11-21T09:44:16;11.00;;;6.00;;
59649;SDS011;46162;57.568;25.814;2022-11-21T09:46:59;10.52;;;5.18;;
59649;SDS011;46162;57.568;25.814;2022-11-21T09:49:39;11.30;;;6.13;;
59649;SDS011;46162;57.568;25.814;2022-11-21T09:52:13;11.90;;;6.00;;
59649;SDS011;46162;57.568;25.814;2022-11-21T09:54:49;10.57;;;5.68;;
59649;SDS011;46162;57.568;25.814;2022-11-21T09:57:22;11.35;;;6.43;;
59649;SDS011;46162;57.568;25.814;2022-11-21T10:00:00;10.38;;;5.63;;
59649;SDS011;46162;57.568;25.814;2022-11-21T10:02:40;10.23;;;5.10;;
59649;SDS011;46162;57.568;25.814;2022-11-21T10:05:11;10.68;;;5.72;;
59649;SDS011;46162;57.568;25.814;2022-11-21T10:07:41;13.27;;;6.30;;
59649;SDS011;46162;57.568;25.814;2022-11-21T10:10:17;11.95;;;5.80;;
59649;SDS011;46162;57.568;25.814;2022-11-21T10:13:09;14.07;;;6.60;;
59649;SDS011;46162;57.568;25.814;2022-11-21T10:16:12;8.95;;;5.07;;
59649;SDS011;46162;57.568;25.814;2022-11-21T10:19:10;8.15;;;4.18;;
59649;SDS011;46162;57.568;25.814;2022-11-21T10:21:57;12.65;;;5.88;;
59649;SDS011;46162;57.568;25.814;2022-11-21T10:24:43;10.50;;;6.28;;
59649;SDS011;46162;57.568;25.814;2022-11-21T10:27:22;12.13;;;5.75;;
59649;SDS011;46162;57.568;25.814;2022-11-21T10:30:00;10.57;;;6.13;;
59649;SDS011;46162;57.568;25.814;2022-11-21T10:32:34;10.85;;;6.43;;
59649;SDS011;46162;57.568;25.814;2022-11-21T10:35:12;10.35;;;5.28;;
59649;SDS011;46162;57.568;25.814;2022-11-21T10:37:44;9.18;;;5.88;;
59649;SDS011;46162;57.568;25.814;2022-11-21T10:40:29;9.65;;;5.75;;
59649;SDS011;46162;57.568;25.814;2022-11-21T10:43:05;9.32;;;5.53;;
59649;SDS011;46162;57.568;25.814;2022-11-21T10:46:04;12.43;;;6.30;;
59649;SDS011;46162;57.568;25.814;2022-11-21T10:48:35;10.23;;;5.18;;
59649;SDS011;46162;57.568;25.814;2022-11-21T10:51:13;9.68;;;5.63;;
59649;SDS011;46162;57.568;25.814;2022-11-21T10:54:26;10.40;;;5.70;;
59649;SDS011;46162;57.568;25.814;2022-11-21T10:57:04;11.63;;;5.90;;
59649;SDS011;46162;57.568;25.814;2022-11-21T10:59:38;10.73;;;5.72;;
59649;SDS011;46162;57.568;25.814;2022-11-21T11:05:16;10.35;;;6.03;;
59649;SDS011;46162;57.568;25.814;2022-11-21T11:08:01;10.60;;;5.80;;
59649;SDS011;46162;57.568;25.814;2022-11-21T11:10:36;11.35;;;6.07;;
59649;SDS011;46162;57.568;25.814;2022-11-21T11:13:11;12.75;;;6.15;;
59649;SDS011;46162;57.568;25.814;2022-11-21T11:16:16;8.73;;;5.32;;
59649;SDS011;46162;57.568;25.814;2022-11-21T11:18:53;10.45;;;6.03;;
59649;SDS011;46162;57.568;25.814;2022-11-21T11:22:00;9.25;;;5.57;;
59649;SDS011;46162;57.568;25.814;2022-11-21T11:24:31;11.05;;;6.10;;
59649;SDS011;46162;57.568;25.814;2022-11-21T11:27:01;12.48;;;6.82;;
59649;SDS011;46162;57.568;25.814;2022-11-21T11:29:32;13.05;;;6.55;;
59649;SDS011;46162;57.568;25.814;2022-11-21T11:32:23;15.20;;;6.72;;
59649;SDS011;46162;57.568;25.814;2022-11-21T11:34:57;11.77;;;5.72;;
59649;SDS011;46162;57.568;25.814;2022-11-21T11:37:35;11.13;;;6.32;;
59649;SDS011;46162;57.568;25.814;2022-11-21T11:40:15;13.65;;;6.55;;
59649;SDS011;46162;57.568;25.814;2022-11-21T11:46:36;10.25;;;4.07;;
59649;SDS011;46162;57.568;25.814;2022-11-21T11:49:32;11.48;;;6.28;;
59649;SDS011;46162;57.568;25.814;2022-11-21T11:52:27;12.23;;;6.88;;
59649;SDS011;46162;57.568;25.814;2022-11-21T11:55:02;12.55;;;6.35;;
59649;SDS011;46162;57.568;25.814;2022-11-21T11:57:35;12.80;;;6.60;;
59649;SDS011;46162;57.568;25.814;2022-11-21T12:00:12;12.05;;;5.82;;
59649;SDS011;46162;57.568;25.814;2022-11-21T12:02:54;13.93;;;6.53;;
59649;SDS011;46162;57.568;25.814;2022-11-21T12:05:28;11.25;;;6.28;;
59649;SDS011;46162;57.568;25.814;2022-11-21T12:08:04;12.02;;;6.05;;
59649;SDS011;46162;57.568;25.814;2022-11-21T12:11:04;10.80;;;5.90;;
59649;SDS011;46162;57.568;25.814;2022-11-21T12:13:56;10.65;;;5.28;;
59649;SDS011;46162;57.568;25.814;2022-11-21T12:16:34;11.38;;;6.30;;
59649;SDS011;46162;57.568;25.814;2022-11-21T12:19:07;13.30;;;6.72;;
59649;SDS011;46162;57.568;25.814;2022-11-21T12:21:41;13.68;;;6.97;;
59649;SDS011;46162;57.568;25.814;2022-11-21T12:24:13;10.85;;;6.25;;
59649;SDS011;46162;57.568;25.814;2022-11-21T12:26:49;10.75;;;6.45;;
59649;SDS011;46162;57.568;25.814;2022-11-21T12:29:29;12.77;;;5.80;;
59649;SDS011;46162;57.568;25.814;2022-11-21T12:32:12;11.63;;;5.82;;
59649;SDS011;46162;57.568;25.814;2022-11-21T12:35:02;13.85;;;6.18;;
59649;SDS011;46162;57.568;25.814;2022-11-21T12:38:04;9.57;;;5.47;;
59649;SDS011;46162;57.568;25.814;2022-11-21T12:40:47;13.00;;;6.25;;
59649;SDS011;46162;57.568;25.814;2022-11-21T12:46:01;12.52;;;5.35;;
59649;SDS011;46162;57.568;25.814;2022-11-21T12:48:44;55.78;;;18.05;;
59649;SDS011;46162;57.568;25.814;2022-11-21T12:51:39;69.18;;;21.23;;
59649;SDS011;46162;57.568;25.814;2022-11-21T12:57:42;57.38;;;18.25;;
59649;SDS011;46162;57.568;25.814;2022-11-21T13:00:24;36.35;;;12.10;;
59649;SDS011;46162;57.568;25.814;2022-11-21T13:03:08;78.63;;;21.35;;
59649;SDS011;46162;57.568;25.814;2022-11-21T13:06:02;19.88;;;7.53;;
59649;SDS011;46162;57.568;25.814;2022-11-21T13:08:34;21.27;;;8.50;;
59649;SDS011;46162;57.568;25.814;2022-11-21T13:11:06;78.47;;;20.45;;
59649;SDS011;46162;57.568;25.814;2022-11-21T13:14:00;74.68;;;23.10;;
59649;SDS011;46162;57.568;25.814;2022-11-21T13:16:36;59.67;;;18.70;;
59649;SDS011;46162;57.568;25.814;2022-11-21T13:19:19;51.63;;;15.63;;
59649;SDS011;46162;57.568;25.814;2022-11-21T13:21:52;34.70;;;11.73;;
59649;SDS011;46162;57.568;25.814;2022-11-21T13:27:25;24.52;;;9.50;;
59649;SDS011;46162;57.568;25.814;2022-11-21T13:30:21;32.85;;;9.57;;
59649;SDS011;46162;57.568;25.814;2022-11-21T13:36:37;20.58;;;7.75;;
59649;SDS011;46162;57.568;25.814;2022-11-21T13:42:10;17.15;;;6.47;;
59649;SDS011;46162;57.568;25.814;2022-11-21T13:45:02;46.45;;;13.52;;
59649;SDS011;46162;57.568;25.814;2022-11-21T13:51:25;21.38;;;7.18;;
59649;SDS011;46162;57.568;25.814;2022-11-21T13:54:25;11.35;;;5.55;;
59649;SDS011;46162;57.568;25.814;2022-11-21T13:57:19;18.25;;;6.32;;
59649;SDS011;46162;57.568;25.814;2022-11-21T14:00:15;15.07;;;6.53;;
59649;SDS011;46162;57.568;25.814;2022-11-21T14:03:14;21.23;;;8.35;;
59649;SDS011;46162;57.568;25.814;2022-11-21T14:09:04;17.00;;;6.70;;
59649;SDS011;46162;57.568;25.814;2022-11-21T14:12:16;18.95;;;8.65;;
59649;SDS011;46162;57.568;25.814;2022-11-21T14:14:50;21.75;;;9.05;;
59649;SDS011;46162;57.568;25.814;2022-11-21T14:17:26;14.20;;;6.47;;
59649;SDS011;46162;57.568;25.814;2022-11-21T14:20:12;23.40;;;9.23;;
59649;SDS011;46162;57.568;25.814;2022-11-21T14:22:55;14.38;;;7.05;;
59649;SDS011;46162;57.568;25.814;2022-11-21T14:25:34;15.50;;;7.53;;
59649;SDS011;46162;57.568;25.814;2022-11-21T14:28:09;20.48;;;8.25;;
59649;SDS011;46162;57.568;25.814;2022-11-21T14:30:41;11.43;;;6.25;;
59649;SDS011;46162;57.568;25.814;2022-11-21T14:33:21;10.23;;;5.38;;
59649;SDS011;46162;57.568;25.814;2022-11-21T14:35:57;27.65;;;8.98;;
59649;SDS011;46162;57.568;25.814;2022-11-21T14:38:31;18.98;;;7.60;;
59649;SDS011;46162;57.568;25.814;2022-11-21T14:44:15;12.32;;;5.90;;
59649;SDS011;46162;57.568;25.814;2022-11-21T14:46:48;22.63;;;8.98;;
59649;SDS011;46162;57.568;25.814;2022-11-21T14:49:55;16.23;;;7.72;;
59649;SDS011;46162;57.568;25.814;2022-11-21T14:52:33;19.00;;;8.52;;
59649;SDS011;46162;57.568;25.814;2022-11-21T14:55:04;12.65;;;6.43;;
59649;SDS011;46162;57.568;25.814;2022-11-21T14:57:57;14.85;;;7.38;;
59649;SDS011;46162;57.568;25.814;2022-11-21T15:00:28;21.13;;;8.93;;
59649;SDS011;46162;57.568;25.814;2022-11-21T15:03:22;15.93;;;7.00;;
59649;SDS011;46162;57.568;25.814;2022-11-21T15:06:04;12.82;;;5.88;;
59649;SDS011;46162;57.568;25.814;2022-11-21T15:08:45;21.00;;;8.38;;
59649;SDS011;46162;57.568;25.814;2022-11-21T15:11:36;15.85;;;5.60;;
59649;SDS011;46162;57.568;25.814;2022-11-21T15:14:15;17.45;;;7.35;;
59649;SDS011;46162;57.568;25.814;2022-11-21T15:16:55;19.67;;;7.63;;
59649;SDS011;46162;57.568;25.814;2022-11-21T15:19:26;20.85;;;9.80;;
59649;SDS011;46162;57.568;25.814;2022-11-21T15:22:00;15.80;;;8.05;;
59649;SDS011;46162;57.568;25.814;2022-11-21T15:24:35;22.55;;;10.00;;
59649;SDS011;46162;57.568;25.814;2022-11-21T15:27:27;23.02;;;9.75;;
59649;SDS011;46162;57.568;25.814;2022-11-21T15:33:03;19.67;;;7.75;;
59649;SDS011;46162;57.568;25.814;2022-11-21T15:35:41;20.02;;;9.10;;
59649;SDS011;46162;57.568;25.814;2022-11-21T15:38:39;18.80;;;9.50;;
59649;SDS011;46162;57.568;25.814;2022-11-21T15:41:22;17.35;;;8.50;;
59649;SDS011;46162;57.568;25.814;2022-11-21T15:46:51;17.80;;;8.10;;
59649;SDS011;46162;57.568;25.814;2022-11-21T15:49:21;16.15;;;7.43;;
59649;SDS011;46162;57.568;25.814;2022-11-21T15:52:10;18.80;;;7.82;;
59649;SDS011;46162;57.568;25.814;2022-11-21T15:54:42;21.75;;;8.35;;